Time;durP1;ratioP1;P1;durP2;ratioP2;P2;SDS_P1;SDS_P2;PMS_P1;PMS_P2;Temp;Humidity;BMP_temperature;BMP_pressure;BME280_temperature;BME280_humidity;BME280_pressure;Samples;Min_cycle;Max_cycle;Signal;HPM_P1;HPM_P2
2022/08/23 00:01:28;;;;;;;3.20;2.35;;;;;;;;;;5052968;28;20533;-69
2022/08/23 00:03:56;;;;;;;5.57;2.42;;;;;;;;;;5053160;28;20045;-69
2022/08/23 00:06:22;;;;;;;2.38;2.17;;;;;;;;;;5052809;28;20045;-69
2022/08/23 00:08:50;;;;;;;3.50;2.00;;;;;;;;;;5052682;28;20052;-69
2022/08/23 00:11:37;;;;;;;3.97;2.13;;;;;;;;;;5062171;28;20036;-69
2022/08/23 00:14:10;;;;;;;5.70;2.10;;;;;;;;;;5072670;28;20053;-69
2022/08/23 00:16:36;;;;;;;2.58;1.95;;;;;;;;;;5059785;28;20048;-69
2022/08/23 00:19:04;;;;;;;5.47;2.17;;;;;;;;;;5051152;28;20076;-69
2022/08/23 00:21:29;;;;;;;4.88;2.40;;;;;;;;;;5051156;28;20057;-69
2022/08/23 00:23:55;;;;;;;2.33;1.98;;;;;;;;;;5068715;28;20204;-69
2022/08/23 00:26:21;;;;;;;5.30;2.25;;;;;;;;;;5072340;28;20502;-69
2022/08/23 00:28:48;;;;;;;6.38;2.38;;;;;;;;;;5072550;28;20327;-69
2022/08/23 00:31:16;;;;;;;4.13;2.10;;;;;;;;;;5059803;28;20499;-70
2022/08/23 00:33:41;;;;;;;2.67;2.20;;;;;;;;;;5056994;28;20326;-69
2022/08/23 00:36:07;;;;;;;5.68;3.00;;;;;;;;;;5072469;28;20141;-69
2022/08/23 00:38:32;;;;;;;5.80;2.53;;;;;;;;;;5070640;28;20503;-69
2022/08/23 00:40:58;;;;;;;4.57;2.22;;;;;;;;;;5070876;28;20094;-69
2022/08/23 00:47:44;;;;;;;9.77;2.40;;;;;;;;;;5049213;28;20059;-69
2022/08/23 00:49:42;;;;;;;4.55;2.58;;;;;;;;;;5045275;28;20387;-69
2022/08/23 00:52:11;;;;;;;5.68;2.38;;;;;;;;;;5050595;28;20069;-69
2022/08/23 00:54:40;;;;;;;3.88;2.28;;;;;;;;;;5043586;28;20551;-69
2022/08/23 00:57:12;;;;;;;5.20;2.45;;;;;;;;;;5035429;28;20104;-70
2022/08/23 00:59:38;;;;;;;7.88;2.28;;;;;;;;;;5030694;28;20049;-70
2022/08/23 01:02:05;;;;;;;3.33;2.33;;;;;;;;;;5047612;28;20099;-69
2022/08/23 01:04:43;;;;;;;2.85;2.30;;;;;;;;;;5055774;28;20043;-69
2022/08/23 01:07:33;;;;;;;5.30;2.45;;;;;;;;;;5053283;28;20110;-69
2022/08/23 01:10:03;;;;;;;3.53;2.40;;;;;;;;;;5070315;28;20051;-69
2022/08/23 01:12:39;;;;;;;4.60;2.20;;;;;;;;;;5071758;28;20040;-70
2022/08/23 01:15:25;;;;;;;5.55;2.38;;;;;;;;;;5062446;28;20040;-69
2022/08/23 01:18:01;;;;;;;6.20;2.30;;;;;;;;;;5048866;28;20045;-69
2022/08/23 01:20:34;;;;;;;4.88;2.60;;;;;;;;;;5051679;28;20033;-69
2022/08/23 01:23:05;;;;;;;3.10;2.40;;;;;;;;;;5050122;28;20045;-69
2022/08/23 01:25:32;;;;;;;4.90;2.43;;;;;;;;;;5050247;28;20052;-69
2022/08/23 01:27:59;;;;;;;6.53;2.70;;;;;;;;;;5066196;28;20058;-70
2022/08/23 01:30:27;;;;;;;3.45;2.10;;;;;;;;;;5067117;28;20044;-70
2022/08/23 01:32:57;;;;;;;6.43;2.72;;;;;;;;;;5051179;28;20041;-69
2022/08/23 01:35:34;;;;;;;5.00;2.90;;;;;;;;;;5050715;28;20057;-69
2022/08/23 01:38:01;;;;;;;4.15;3.10;;;;;;;;;;5044201;28;20068;-69
2022/08/23 01:40:27;;;;;;;4.03;2.80;;;;;;;;;;5057642;28;20529;-69
2022/08/23 01:42:53;;;;;;;4.65;2.90;;;;;;;;;;5070937;28;20055;-69
2022/08/23 01:45:19;;;;;;;4.35;3.00;;;;;;;;;;5067711;28;20054;-69
2022/08/23 01:47:45;;;;;;;4.88;3.10;;;;;;;;;;5048718;28;20395;-69
2022/08/23 01:50:12;;;;;;;4.03;3.38;;;;;;;;;;5059544;28;20115;-68
2022/08/23 01:52:39;;;;;;;4.43;2.80;;;;;;;;;;5069439;28;20052;-68
2022/08/23 01:55:05;;;;;;;3.22;2.80;;;;;;;;;;5069474;28;20044;-69
2022/08/23 01:57:32;;;;;;;3.67;2.80;;;;;;;;;;5070082;28;20123;-69
2022/08/23 01:59:59;;;;;;;3.75;2.95;;;;;;;;;;5061341;28;20090;-69
2022/08/23 02:02:24;;;;;;;7.22;2.92;;;;;;;;;;5049570;28;20461;-68
2022/08/23 02:04:50;;;;;;;10.27;3.67;;;;;;;;;;5050760;28;20053;-68
2022/08/23 02:07:16;;;;;;;3.17;2.40;;;;;;;;;;5048504;28;20044;-68
2022/08/23 02:09:42;;;;;;;2.72;2.53;;;;;;;;;;5048160;28;20040;-68
2022/08/23 02:12:09;;;;;;;3.80;2.70;;;;;;;;;;5058736;28;20048;-68
2022/08/23 02:14:36;;;;;;;2.95;2.67;;;;;;;;;;5069040;28;20036;-68
2022/08/23 02:17:03;;;;;;;7.28;2.60;;;;;;;;;;5052473;28;20448;-68
2022/08/23 02:19:29;;;;;;;3.70;2.47;;;;;;;;;;5049792;28;20041;-68
2022/08/23 02:21:55;;;;;;;2.97;2.75;;;;;;;;;;5047800;28;20079;-68
2022/08/23 02:24:23;;;;;;;3.42;2.80;;;;;;;;;;5068523;28;20064;-68
2022/08/23 02:26:53;;;;;;;6.80;2.85;;;;;;;;;;5068658;28;20051;-68
2022/08/23 02:29:22;;;;;;;6.97;2.57;;;;;;;;;;5068374;28;20052;-68
2022/08/23 02:31:48;;;;;;;4.00;3.35;;;;;;;;;;5053115;28;20063;-68
2022/08/23 02:34:16;;;;;;;6.20;2.78;;;;;;;;;;5067602;28;20414;-68
2022/08/23 02:36:43;;;;;;;4.75;2.25;;;;;;;;;;5068511;28;20040;-68
2022/08/23 02:39:12;;;;;;;4.55;2.60;;;;;;;;;;5069261;28;20048;-68
2022/08/23 02:41:38;;;;;;;3.97;2.75;;;;;;;;;;5068679;28;20115;-68
2022/08/23 02:44:06;;;;;;;2.88;2.60;;;;;;;;;;5044006;28;20047;-68
2022/08/23 02:46:31;;;;;;;4.10;2.90;;;;;;;;;;5055810;28;20041;-67
2022/08/23 02:48:57;;;;;;;5.60;2.80;;;;;;;;;;5048546;28;20079;-68
2022/08/23 02:51:25;;;;;;;3.97;2.50;;;;;;;;;;5047961;28;20521;-67
2022/08/23 02:53:51;;;;;;;4.60;2.40;;;;;;;;;;5047553;28;20539;-68
2022/08/23 02:56:18;;;;;;;6.60;2.35;;;;;;;;;;5059517;28;20132;-68
2022/08/23 02:58:44;;;;;;;3.30;2.22;;;;;;;;;;5068045;28;20521;-68
2022/08/23 03:01:19;;;;;;;8.00;2.22;;;;;;;;;;5058139;28;20139;-68
2022/08/23 03:03:46;;;;;;;4.70;2.20;;;;;;;;;;5048442;28;20051;-68
2022/08/23 03:06:13;;;;;;;5.70;2.20;;;;;;;;;;5057805;28;20052;-68
2022/08/23 03:08:39;;;;;;;5.05;2.75;;;;;;;;;;5067845;28;20418;-68
2022/08/23 03:11:12;;;;;;;6.22;2.30;;;;;;;;;;5068349;28;20525;-68
2022/08/23 03:13:39;;;;;;;6.20;2.53;;;;;;;;;;5034554;28;20468;-68
2022/08/23 03:16:04;;;;;;;2.92;2.30;;;;;;;;;;5061064;28;20073;-68
2022/08/23 03:18:30;;;;;;;3.97;2.55;;;;;;;;;;5067735;28;20129;-67
2022/08/23 03:20:58;;;;;;;3.35;2.42;;;;;;;;;;5068078;28;20041;-68
2022/08/23 03:23:25;;;;;;;4.22;2.50;;;;;;;;;;5067468;28;20632;-68
2022/08/23 03:25:51;;;;;;;5.95;2.53;;;;;;;;;;5070143;28;20051;-68
2022/08/23 03:28:25;;;;;;;3.20;2.50;;;;;;;;;;5058224;28;20288;-67
2022/08/23 03:30:50;;;;;;;5.38;2.88;;;;;;;;;;5067932;28;20041;-68
2022/08/23 03:33:16;;;;;;;4.18;2.42;;;;;;;;;;5054181;28;20056;-67
2022/08/23 03:35:44;;;;;;;2.97;2.70;;;;;;;;;;5054950;28;20469;-68
2022/08/23 03:38:12;;;;;;;3.50;2.38;;;;;;;;;;5048083;28;20064;-68
2022/08/23 03:40:39;;;;;;;3.88;2.65;;;;;;;;;;5054727;28;20142;-67
2022/08/23 03:43:04;;;;;;;9.32;2.88;;;;;;;;;;5073610;28;20040;-68
2022/08/23 03:45:30;;;;;;;5.03;2.78;;;;;;;;;;5071691;28;20561;-68
2022/08/23 03:47:56;;;;;;;8.75;3.00;;;;;;;;;;5054304;28;20051;-70
2022/08/23 03:50:22;;;;;;;9.55;2.90;;;;;;;;;;5057098;28;20422;-68
2022/08/23 03:52:49;;;;;;;5.25;2.83;;;;;;;;;;5074263;28;20090;-68
2022/08/23 03:55:15;;;;;;;3.60;2.85;;;;;;;;;;5074000;28;20036;-68
2022/08/23 03:57:43;;;;;;;2.88;2.60;;;;;;;;;;5074354;28;20041;-67
2022/08/23 04:00:11;;;;;;;3.65;2.90;;;;;;;;;;5065872;28;20056;-68
2022/08/23 04:02:42;;;;;;;5.15;3.13;;;;;;;;;;5047036;28;20053;-68
2022/08/23 04:05:09;;;;;;;5.10;2.90;;;;;;;;;;5051648;28;20131;-68
2022/08/23 04:07:56;;;;;;;4.07;3.40;;;;;;;;;;5073716;28;20062;-68
2022/08/23 04:10:23;;;;;;;4.03;3.17;;;;;;;;;;5071068;28;20070;-68
2022/08/23 04:12:53;;;;;;;4.68;3.08;;;;;;;;;;5071296;28;20036;-68
2022/08/23 04:15:19;;;;;;;3.15;2.85;;;;;;;;;;5071246;28;20075;-68
2022/08/23 04:17:45;;;;;;;3.55;3.05;;;;;;;;;;5054033;28;20037;-68
2022/08/23 04:20:11;;;;;;;4.93;3.83;;;;;;;;;;5054286;28;20056;-68
2022/08/23 04:22:51;;;;;;;6.90;4.00;;;;;;;;;;5059987;28;20044;-68
2022/08/23 04:25:18;;;;;;;6.50;3.85;;;;;;;;;;5073669;28;20139;-68
2022/08/23 04:27:44;;;;;;;8.05;4.30;;;;;;;;;;5073894;28;20044;-68
2022/08/23 04:30:11;;;;;;;6.80;4.30;;;;;;;;;;5073237;28;20131;-68
2022/08/23 04:32:36;;;;;;;4.30;3.90;;;;;;;;;;5052950;28;20049;-68
2022/08/23 04:35:02;;;;;;;8.68;4.70;;;;;;;;;;5062994;28;20127;-67
2022/08/23 04:37:29;;;;;;;8.30;4.45;;;;;;;;;;5070546;28;20130;-68
2022/08/23 04:42:41;;;;;;;5.43;4.30;;;;;;;;;;5070340;28;20072;-67
2022/08/23 04:45:07;;;;;;;7.68;5.53;;;;;;;;;;5053078;28;20080;-70
2022/08/23 04:47:37;;;;;;;7.53;4.80;;;;;;;;;;5057381;28;20143;-67
2022/08/23 04:50:05;;;;;;;5.20;4.63;;;;;;;;;;5070868;28;20090;-67
2022/08/23 04:52:31;;;;;;;8.63;4.70;;;;;;;;;;5070677;28;20510;-67
2022/08/23 04:54:57;;;;;;;8.40;4.80;;;;;;;;;;5063424;28;20094;-67
2022/08/23 04:57:45;;;;;;;10.40;5.10;;;;;;;;;;5038328;28;20394;-67
2022/08/23 05:00:15;;;;;;;7.63;4.10;;;;;;;;;;5067800;28;20063;-67
2022/08/23 05:02:48;;;;;;;6.38;4.60;;;;;;;;;;5030758;28;20119;-67
2022/08/23 05:05:14;;;;;;;4.25;3.72;;;;;;;;;;5031908;28;20077;-67
2022/08/23 05:07:42;;;;;;;7.22;4.30;;;;;;;;;;5056389;28;20410;-67
2022/08/23 05:10:11;;;;;;;12.57;4.63;;;;;;;;;;5070130;28;20486;-67
2022/08/23 05:12:39;;;;;;;5.97;3.50;;;;;;;;;;5070398;28;20392;-67
2022/08/23 05:15:05;;;;;;;6.47;3.33;;;;;;;;;;5069910;28;20055;-67
2022/08/23 05:17:31;;;;;;;6.78;3.22;;;;;;;;;;5047297;28;20044;-67
2022/08/23 05:19:57;;;;;;;4.30;3.13;;;;;;;;;;5070010;28;20052;-67
2022/08/23 05:22:22;;;;;;;5.18;3.33;;;;;;;;;;5070011;28;20572;-67
2022/08/23 05:25:48;;;;;;;4.78;2.90;;;;;;;;;;5028433;28;20068;-66
2022/08/23 05:28:21;;;;;;;3.67;2.70;;;;;;;;;;5004476;28;20487;-67
2022/08/23 05:31:17;;;;;;;5.53;2.85;;;;;;;;;;5043310;28;20033;-69
2022/08/23 05:33:51;;;;;;;4.78;2.42;;;;;;;;;;5034271;28;20060;-67
2022/08/23 05:36:23;;;;;;;3.38;2.63;;;;;;;;;;5049962;28;20040;-67
2022/08/23 05:38:51;;;;;;;6.30;2.80;;;;;;;;;;5049015;28;20045;-67
2022/08/23 05:41:20;;;;;;;5.72;3.53;;;;;;;;;;5052077;28;20087;-67
2022/08/23 05:43:47;;;;;;;3.83;2.70;;;;;;;;;;5068913;28;20045;-67
2022/08/23 05:46:16;;;;;;;5.95;3.05;;;;;;;;;;5059982;28;20506;-67
2022/08/23 05:48:49;;;;;;;7.32;3.47;;;;;;;;;;5049214;28;20069;-67
2022/08/23 05:51:20;;;;;;;7.00;2.80;;;;;;;;;;5052993;28;20418;-67
2022/08/23 05:53:46;;;;;;;3.28;2.97;;;;;;;;;;5070677;28;20441;-67
2022/08/23 05:56:18;;;;;;;4.10;3.00;;;;;;;;;;5069423;28;20451;-67
2022/08/23 05:58:45;;;;;;;3.47;2.75;;;;;;;;;;5069256;28;20058;-68
2022/08/23 06:01:11;;;;;;;5.53;3.30;;;;;;;;;;5060566;28;20049;-67
2022/08/23 06:03:40;;;;;;;3.65;2.80;;;;;;;;;;5060930;28;20054;-67
2022/08/23 06:06:06;;;;;;;4.88;3.15;;;;;;;;;;5069257;28;20036;-67
2022/08/23 06:08:33;;;;;;;6.00;2.72;;;;;;;;;;5068810;28;20044;-67
2022/08/23 06:11:05;;;;;;;3.53;2.75;;;;;;;;;;5069455;28;20040;-67
2022/08/23 06:13:42;;;;;;;3.78;2.53;;;;;;;;;;5045316;28;20045;-67
2022/08/23 06:16:09;;;;;;;3.22;2.20;;;;;;;;;;5056397;28;20045;-67
2022/08/23 06:18:35;;;;;;;5.90;2.50;;;;;;;;;;5048987;28;20419;-67
2022/08/23 06:21:17;;;;;;;3.67;2.05;;;;;;;;;;5048521;28;20119;-70
2022/08/23 06:23:48;;;;;;;5.28;2.70;;;;;;;;;;5048360;28;20446;-69
2022/08/23 06:26:16;;;;;;;2.60;2.28;;;;;;;;;;5067733;28;20055;-67
2022/08/23 06:28:48;;;;;;;4.35;2.40;;;;;;;;;;5068566;28;20413;-68
2022/08/23 06:31:13;;;;;;;3.00;2.67;;;;;;;;;;5058490;28;20463;-66
2022/08/23 06:33:52;;;;;;;3.95;2.10;;;;;;;;;;5047820;28;20032;-68
2022/08/23 06:36:55;;;;;;;6.53;2.40;;;;;;;;;;5061878;28;20050;-67
2022/08/23 06:39:39;;;;;;;2.83;2.38;;;;;;;;;;5067469;28;20114;-68
2022/08/23 06:42:32;;;;;;;4.30;2.35;;;;;;;;;;5068561;28;20048;-68
2022/08/23 06:45:01;;;;;;;2.25;2.03;;;;;;;;;;5060409;28;20036;-68
2022/08/23 06:47:36;;;;;;;9.13;2.45;;;;;;;;;;5045070;28;20503;-68
2022/08/23 06:50:02;;;;;;;3.92;2.45;;;;;;;;;;5068520;28;20063;-68
2022/08/23 06:53:00;;;;;;;4.65;2.08;;;;;;;;;;5035676;28;20147;-68
2022/08/23 06:55:40;;;;;;;2.42;2.20;;;;;;;;;;5029432;28;20057;-68
2022/08/23 06:58:21;;;;;;;3.38;2.38;;;;;;;;;;5059564;28;20032;-68
2022/08/23 07:01:11;;;;;;;2.83;2.15;;;;;;;;;;5053112;28;20213;-68
2022/08/23 07:04:05;;;;;;;3.22;1.95;;;;;;;;;;4992779;28;20095;-68
2022/08/23 07:06:49;;;;;;;3.78;1.80;;;;;;;;;;5035121;28;20118;-68
2022/08/23 07:09:16;;;;;;;1.83;1.63;;;;;;;;;;5041751;28;20042;-68
2022/08/23 07:11:42;;;;;;;2.70;1.90;;;;;;;;;;5068254;28;20396;-68
2022/08/23 07:14:10;;;;;;;2.85;1.80;;;;;;;;;;5068401;28;20085;-67
2022/08/23 07:16:43;;;;;;;4.47;1.95;;;;;;;;;;5055647;28;20060;-68
2022/08/23 07:19:09;;;;;;;3.33;1.92;;;;;;;;;;5047857;28;20128;-68
2022/08/23 07:21:36;;;;;;;2.22;1.83;;;;;;;;;;5067987;28;20760;-68
2022/08/23 07:24:02;;;;;;;3.03;1.92;;;;;;;;;;5068350;28;20098;-67
2022/08/23 07:26:28;;;;;;;9.82;1.70;;;;;;;;;;5068298;28;20044;-67
2022/08/23 07:28:55;;;;;;;5.05;2.00;;;;;;;;;;5060384;28;20096;-67
2022/08/23 07:31:29;;;;;;;2.40;1.60;;;;;;;;;;5048383;28;20040;-67
2022/08/23 07:33:57;;;;;;;2.78;1.90;;;;;;;;;;5048215;28;20088;-67
2022/08/23 07:36:25;;;;;;;1.95;1.65;;;;;;;;;;5047744;28;20041;-68
2022/08/23 07:38:52;;;;;;;4.20;1.65;;;;;;;;;;5047666;28;20041;-68
2022/08/23 07:41:19;;;;;;;3.17;1.67;;;;;;;;;;5058006;28;20036;-68
2022/08/23 07:43:46;;;;;;;5.38;1.90;;;;;;;;;;5037682;28;20034;-68
2022/08/23 07:46:12;;;;;;;5.18;2.10;;;;;;;;;;5037499;28;20074;-68
2022/08/23 07:48:38;;;;;;;3.92;1.80;;;;;;;;;;5047707;28;20056;-67
2022/08/23 07:51:17;;;;;;;2.50;1.80;;;;;;;;;;5044656;28;20057;-67
2022/08/23 07:53:44;;;;;;;5.82;1.67;;;;;;;;;;5067639;28;20067;-69
2022/08/23 07:56:12;;;;;;;4.43;1.70;;;;;;;;;;5067934;28;20388;-68
2022/08/23 07:58:54;;;;;;;2.67;1.42;;;;;;;;;;5067559;28;20398;-68
2022/08/23 08:01:32;;;;;;;6.20;1.90;;;;;;;;;;5053809;28;20091;-68
2022/08/23 08:04:00;;;;;;;4.30;2.03;;;;;;;;;;5065543;28;20079;-69
2022/08/23 08:06:32;;;;;;;3.42;1.95;;;;;;;;;;5067909;28;20130;-68
2022/08/23 08:08:58;;;;;;;3.40;2.00;;;;;;;;;;5073252;28;20048;-67
2022/08/23 08:11:26;;;;;;;3.35;1.60;;;;;;;;;;5069690;28;20048;-68
2022/08/23 08:13:53;;;;;;;1.95;1.58;;;;;;;;;;5057343;28;20055;-68
2022/08/23 08:16:22;;;;;;;1.75;1.40;;;;;;;;;;5060709;28;20051;-68
2022/08/23 08:18:47;;;;;;;2.05;1.70;;;;;;;;;;5051336;28;20051;-68
2022/08/23 08:21:34;;;;;;;3.92;1.67;;;;;;;;;;5030744;28;20053;-68
2022/08/23 08:24:09;;;;;;;4.20;1.80;;;;;;;;;;5050590;28;20052;-67
2022/08/23 08:26:45;;;;;;;5.43;1.58;;;;;;;;;;5065954;28;20048;-67
2022/08/23 08:29:12;;;;;;;3.47;1.67;;;;;;;;;;5070523;28;20040;-67
2022/08/23 08:31:42;;;;;;;5.90;1.83;;;;;;;;;;5057879;28;20041;-67
2022/08/23 08:34:09;;;;;;;4.75;1.83;;;;;;;;;;5051899;28;20045;-68
2022/08/23 08:36:39;;;;;;;4.13;2.22;;;;;;;;;;5057825;28;20051;-68
2022/08/23 08:39:13;;;;;;;2.67;1.55;;;;;;;;;;5070008;28;20044;-68
2022/08/23 08:41:57;;;;;;;3.45;1.55;;;;;;;;;;5070942;28;20040;-68
2022/08/23 08:44:50;;;;;;;3.13;1.65;;;;;;;;;;5071793;28;20040;-67
2022/08/23 08:47:26;;;;;;;3.00;1.90;;;;;;;;;;5053165;28;20059;-68
2022/08/23 08:50:05;;;;;;;4.60;1.63;;;;;;;;;;5070858;28;20045;-67
2022/08/23 08:52:41;;;;;;;3.95;1.90;;;;;;;;;;5070827;28;20048;-67
2022/08/23 08:55:35;;;;;;;5.65;2.03;;;;;;;;;;5070360;28;20055;-67
2022/08/23 08:58:05;;;;;;;6.88;1.88;;;;;;;;;;5054705;28;20535;-67
2022/08/23 09:00:37;;;;;;;2.25;1.27;;;;;;;;;;5066728;28;20053;-67
2022/08/23 09:03:11;;;;;;;3.08;2.10;;;;;;;;;;5050560;28;20041;-67
2022/08/23 09:05:38;;;;;;;2.83;1.73;;;;;;;;;;5050155;28;20505;-68
2022/08/23 09:08:32;;;;;;;3.70;1.52;;;;;;;;;;5049209;28;20037;-67
2022/08/23 09:11:36;;;;;;;2.47;1.52;;;;;;;;;;5050372;28;20040;-67
2022/08/23 09:14:16;;;;;;;5.85;1.60;;;;;;;;;;5036189;28;20422;-67
2022/08/23 09:16:56;;;;;;;4.20;1.57;;;;;;;;;;5050402;28;20597;-67
2022/08/23 09:19:23;;;;;;;3.97;1.55;;;;;;;;;;5052013;28;20287;-67
2022/08/23 09:21:56;;;;;;;2.78;1.40;;;;;;;;;;5069942;28;20056;-67
2022/08/23 09:24:24;;;;;;;3.40;1.77;;;;;;;;;;5069533;28;20048;-68
2022/08/23 09:27:00;;;;;;;2.92;1.38;;;;;;;;;;5070297;28;20037;-67
2022/08/23 09:29:32;;;;;;;3.15;1.33;;;;;;;;;;5065382;28;20057;-67
2022/08/23 09:32:01;;;;;;;1.80;1.35;;;;;;;;;;5049847;28;20061;-69
2022/08/23 09:34:34;;;;;;;2.63;1.30;;;;;;;;;;5049930;28;20057;-68
2022/08/23 09:37:23;;;;;;;2.78;1.40;;;;;;;;;;5050113;28;20048;-67
2022/08/23 09:40:12;;;;;;;3.75;1.48;;;;;;;;;;5033674;28;20051;-68
2022/08/23 09:42:39;;;;;;;2.03;1.40;;;;;;;;;;5057364;28;20414;-67
2022/08/23 09:45:25;;;;;;;4.13;1.40;;;;;;;;;;5067324;28;20816;-69
2022/08/23 09:47:52;;;;;;;1.90;1.35;;;;;;;;;;5030913;28;20049;-67
2022/08/23 09:50:26;;;;;;;4.45;1.38;;;;;;;;;;5029782;28;20045;-67
2022/08/23 09:53:03;;;;;;;5.28;1.67;;;;;;;;;;5043496;28;20045;-67
2022/08/23 09:55:31;;;;;;;5.43;1.70;;;;;;;;;;5054074;28;20056;-67
2022/08/23 09:57:59;;;;;;;2.92;1.55;;;;;;;;;;5070741;28;20245;-68
2022/08/23 10:00:29;;;;;;;4.18;1.50;;;;;;;;;;5066809;28;20040;-67
2022/08/23 10:03:21;;;;;;;4.55;1.70;;;;;;;;;;5043826;28;20228;-67
2022/08/23 10:05:51;;;;;;;3.03;1.30;;;;;;;;;;5043491;28;20046;-67
2022/08/23 10:08:24;;;;;;;2.63;1.50;;;;;;;;;;5069302;28;20131;-67
2022/08/23 10:10:53;;;;;;;3.20;1.30;;;;;;;;;;5069391;28;20215;-67
2022/08/23 10:13:29;;;;;;;3.70;1.50;;;;;;;;;;5064784;28;20143;-67
2022/08/23 10:16:23;;;;;;;2.60;1.48;;;;;;;;;;5051051;28;20046;-67
2022/08/23 10:19:05;;;;;;;2.95;1.50;;;;;;;;;;5029073;28;20053;-67
2022/08/23 10:21:41;;;;;;;5.20;1.30;;;;;;;;;;5028511;28;20061;-67
2022/08/23 10:24:23;;;;;;;4.55;1.50;;;;;;;;;;5029110;28;20538;-68
2022/08/23 10:30:11;;;;;;;4.47;1.35;;;;;;;;;;5033437;28;20041;-67
2022/08/23 10:33:10;;;;;;;2.72;1.40;;;;;;;;;;5045712;28;20049;-68
2022/08/23 10:35:48;;;;;;;3.22;1.30;;;;;;;;;;5014057;28;20049;-67
2022/08/23 10:38:50;;;;;;;2.72;1.48;;;;;;;;;;5068631;28;20063;-68
2022/08/23 10:41:17;;;;;;;5.85;1.40;;;;;;;;;;5068082;28;20078;-68
2022/08/23 10:44:01;;;;;;;3.63;1.42;;;;;;;;;;5068684;28;20414;-68
2022/08/23 10:46:31;;;;;;;2.40;1.33;;;;;;;;;;5056177;28;20049;-68
2022/08/23 10:49:00;;;;;;;4.35;1.88;;;;;;;;;;5056536;28;20474;-68
2022/08/23 10:51:32;;;;;;;3.53;1.30;;;;;;;;;;5068290;28;20454;-68
2022/08/23 10:54:06;;;;;;;3.80;1.40;;;;;;;;;;5068617;28;20052;-69
2022/08/23 10:56:33;;;;;;;3.67;1.23;;;;;;;;;;5068524;28;20052;-69
2022/08/23 10:59:06;;;;;;;4.15;1.40;;;;;;;;;;5051325;28;20098;-69
2022/08/23 11:01:52;;;;;;;2.95;1.42;;;;;;;;;;5055348;28;20045;-69
2022/08/23 11:04:30;;;;;;;4.00;1.40;;;;;;;;;;5048510;28;20053;-69
2022/08/23 11:07:30;;;;;;;2.40;1.55;;;;;;;;;;5047908;28;20131;-69
2022/08/23 11:10:24;;;;;;;3.85;1.48;;;;;;;;;;5047480;28;20041;-69
2022/08/23 11:13:05;;;;;;;2.88;1.40;;;;;;;;;;5069752;28;20052;-69
2022/08/23 11:15:44;;;;;;;2.58;1.40;;;;;;;;;;5043704;28;20076;-69
2022/08/23 11:18:25;;;;;;;9.23;1.55;;;;;;;;;;5027894;28;20041;-69
2022/08/23 11:20:54;;;;;;;2.55;1.65;;;;;;;;;;5058403;28;20103;-69
2022/08/23 11:23:43;;;;;;;2.75;1.40;;;;;;;;;;5052184;28;20478;-68
2022/08/23 11:26:21;;;;;;;7.55;1.67;;;;;;;;;;5068354;28;20067;-69
2022/08/23 11:28:49;;;;;;;3.20;1.30;;;;;;;;;;5067821;28;20525;-69
2022/08/23 11:31:24;;;;;;;2.90;1.40;;;;;;;;;;5056150;28;20061;-68
2022/08/23 11:33:59;;;;;;;2.00;1.15;;;;;;;;;;5063589;28;20174;-69
2022/08/23 11:36:27;;;;;;;1.92;1.27;;;;;;;;;;5068073;28;20051;-69
2022/08/23 11:38:54;;;;;;;5.45;1.38;;;;;;;;;;5067642;28;20044;-68
2022/08/23 11:41:35;;;;;;;2.33;1.42;;;;;;;;;;5064129;28;20052;-69
2022/08/23 11:44:01;;;;;;;5.38;1.65;;;;;;;;;;5056049;28;20158;-69
2022/08/23 11:46:26;;;;;;;3.42;1.20;;;;;;;;;;5057767;28;20507;-69
2022/08/23 11:49:20;;;;;;;4.22;1.27;;;;;;;;;;5051859;28;20049;-68
2022/08/23 11:52:11;;;;;;;2.42;1.17;;;;;;;;;;5016440;28;20494;-69
2022/08/23 11:55:10;;;;;;;2.67;1.33;;;;;;;;;;5059137;28;20547;-69
2022/08/23 11:57:53;;;;;;;2.05;1.20;;;;;;;;;;5032567;28;20318;-69
2022/08/23 12:00:25;;;;;;;1.80;1.20;;;;;;;;;;5035191;28;20107;-69
2022/08/23 12:03:04;;;;;;;1.52;1.02;;;;;;;;;;5053134;28;20064;-69
2022/08/23 12:05:32;;;;;;;3.28;1.30;;;;;;;;;;5049789;28;20059;-69
2022/08/23 12:07:58;;;;;;;3.15;1.20;;;;;;;;;;5072624;28;20055;-69
2022/08/23 12:10:41;;;;;;;2.28;1.30;;;;;;;;;;5072785;28;20056;-67
2022/08/23 12:13:48;;;;;;;6.72;1.52;;;;;;;;;;5072855;28;20098;-68
2022/08/23 12:16:15;;;;;;;2.53;1.20;;;;;;;;;;5026494;28;20504;-69
2022/08/23 12:18:52;;;;;;;2.40;1.50;;;;;;;;;;5072516;28;20148;-69
2022/08/23 12:21:22;;;;;;;4.38;1.10;;;;;;;;;;5071881;28;20052;-69
2022/08/23 12:23:52;;;;;;;4.32;1.20;;;;;;;;;;5072674;28;20044;-68
2022/08/23 12:26:37;;;;;;;1.92;1.40;;;;;;;;;;5061446;28;20674;-68
2022/08/23 12:29:11;;;;;;;2.67;1.33;;;;;;;;;;5019397;28;20093;-69
2022/08/23 12:32:04;;;;;;;3.53;1.23;;;;;;;;;;5058985;28;20495;-69
2022/08/23 12:34:53;;;;;;;7.13;1.40;;;;;;;;;;5052686;28;20049;-69
2022/08/23 12:37:33;;;;;;;1.45;1.10;;;;;;;;;;5050986;28;20057;-69
2022/08/23 12:40:01;;;;;;;5.10;1.70;;;;;;;;;;5068785;28;20457;-68
2022/08/23 12:42:30;;;;;;;4.65;1.35;;;;;;;;;;5072296;28;20040;-68
2022/08/23 12:45:16;;;;;;;2.60;1.40;;;;;;;;;;5072643;28;20045;-68
2022/08/23 12:47:53;;;;;;;3.65;1.40;;;;;;;;;;5030223;28;20053;-69
2022/08/23 12:50:29;;;;;;;2.53;1.27;;;;;;;;;;5062622;28;20140;-68
2022/08/23 12:52:57;;;;;;;2.33;1.50;;;;;;;;;;5072212;28;20098;-68
2022/08/23 12:55:22;;;;;;;3.28;1.42;;;;;;;;;;5071555;28;20581;-69
2022/08/23 12:57:54;;;;;;;3.30;1.25;;;;;;;;;;5071705;28;20056;-68
2022/08/23 13:00:33;;;;;;;7.55;1.25;;;;;;;;;;5060749;28;20131;-68
2022/08/23 13:03:00;;;;;;;2.85;1.17;;;;;;;;;;5051603;28;20049;-69
2022/08/23 13:05:39;;;;;;;1.27;0.98;;;;;;;;;;5051247;28;20131;-69
2022/08/23 13:08:09;;;;;;;3.58;1.25;;;;;;;;;;5051784;28;20135;-68
2022/08/23 13:10:37;;;;;;;3.33;1.20;;;;;;;;;;5050804;28;20059;-68
2022/08/23 13:13:03;;;;;;;1.80;1.20;;;;;;;;;;5068986;28;20102;-68
2022/08/23 13:15:48;;;;;;;3.15;1.20;;;;;;;;;;5067447;28;20060;-69
2022/08/23 13:18:26;;;;;;;2.72;1.00;;;;;;;;;;5051478;28;20055;-69
2022/08/23 13:21:17;;;;;;;3.38;1.10;;;;;;;;;;5050741;28;20048;-68
2022/08/23 13:23:43;;;;;;;2.35;0.90;;;;;;;;;;5048977;28;20056;-69
2022/08/23 13:26:33;;;;;;;1.60;1.20;;;;;;;;;;5051560;28;20049;-69
2022/08/23 13:29:08;;;;;;;1.02;0.93;;;;;;;;;;5051355;28;20048;-68
2022/08/23 13:32:02;;;;;;;2.15;1.10;;;;;;;;;;5049575;28;20052;-68
2022/08/23 13:34:41;;;;;;;2.38;1.20;;;;;;;;;;5056263;28;20047;-68
2022/08/23 13:37:26;;;;;;;1.92;0.98;;;;;;;;;;5071310;28;20037;-69
2022/08/23 13:40:20;;;;;;;3.22;1.10;;;;;;;;;;5068549;28;20510;-68
2022/08/23 13:42:49;;;;;;;1.50;0.98;;;;;;;;;;5064765;28;20414;-68
2022/08/23 13:45:20;;;;;;;1.83;1.10;;;;;;;;;;5056913;28;20044;-69
2022/08/23 13:47:49;;;;;;;1.63;1.10;;;;;;;;;;5031051;28;20052;-68
2022/08/23 13:50:24;;;;;;;2.10;1.00;;;;;;;;;;5030870;28;20521;-69
2022/08/23 13:52:50;;;;;;;1.23;1.00;;;;;;;;;;5031022;28;20144;-69
2022/08/23 13:55:15;;;;;;;1.10;1.00;;;;;;;;;;5050029;28;20139;-68
2022/08/23 13:57:42;;;;;;;4.68;1.10;;;;;;;;;;5070681;28;20048;-68
2022/08/23 14:00:09;;;;;;;1.30;0.85;;;;;;;;;;5070413;28;20067;-69
2022/08/23 14:02:36;;;;;;;3.25;1.05;;;;;;;;;;5050745;28;20048;-69
2022/08/23 14:05:06;;;;;;;2.47;0.90;;;;;;;;;;5050284;28;20071;-69
2022/08/23 14:07:32;;;;;;;2.70;1.30;;;;;;;;;;5069568;28;20056;-69
2022/08/23 14:09:58;;;;;;;1.27;1.00;;;;;;;;;;5070510;28;20044;-69
2022/08/23 14:12:28;;;;;;;1.30;1.00;;;;;;;;;;5070664;28;20131;-68
2022/08/23 14:14:55;;;;;;;5.03;0.90;;;;;;;;;;5070498;28;20045;-68
2022/08/23 14:17:20;;;;;;;1.10;1.00;;;;;;;;;;5052976;28;20132;-69
2022/08/23 14:19:47;;;;;;;1.60;0.93;;;;;;;;;;5070040;28;20041;-69
2022/08/23 14:22:13;;;;;;;1.10;1.00;;;;;;;;;;5070231;28;20512;-69
2022/08/23 14:24:39;;;;;;;2.38;1.05;;;;;;;;;;5070429;28;20680;-69
2022/08/23 14:27:06;;;;;;;5.10;1.42;;;;;;;;;;5061526;28;20075;-68
2022/08/23 14:29:32;;;;;;;1.63;1.05;;;;;;;;;;5062544;28;20117;-68
2022/08/23 14:31:58;;;;;;;2.20;1.08;;;;;;;;;;5054425;28;20053;-69
2022/08/23 14:34:27;;;;;;;1.88;1.05;;;;;;;;;;5050155;28;20103;-68
2022/08/23 14:36:53;;;;;;;2.00;1.10;;;;;;;;;;5050250;28;20041;-69
2022/08/23 14:39:20;;;;;;;2.58;1.08;;;;;;;;;;5050963;28;20376;-69
2022/08/23 14:41:46;;;;;;;1.00;0.90;;;;;;;;;;5069771;28;20072;-69
2022/08/23 14:44:12;;;;;;;4.93;1.20;;;;;;;;;;5069965;28;20086;-69
2022/08/23 14:46:39;;;;;;;3.38;1.20;;;;;;;;;;5056884;28;20095;-68
2022/08/23 14:49:04;;;;;;;3.45;1.20;;;;;;;;;;5049888;28;20059;-68
2022/08/23 14:51:36;;;;;;;2.40;1.17;;;;;;;;;;5068982;28;20037;-68
2022/08/23 14:54:03;;;;;;;1.33;1.05;;;;;;;;;;5069989;28;20048;-68
2022/08/23 14:56:29;;;;;;;1.45;0.95;;;;;;;;;;5069837;28;20463;-68
2022/08/23 14:58:55;;;;;;;3.20;1.27;;;;;;;;;;5069463;28;20053;-69
2022/08/23 15:01:21;;;;;;;1.80;1.20;;;;;;;;;;5049855;28;20078;-69
2022/08/23 15:03:47;;;;;;;2.38;1.17;;;;;;;;;;5064618;28;20048;-69
2022/08/23 15:06:15;;;;;;;4.13;1.10;;;;;;;;;;5069698;28;20450;-69
2022/08/23 15:08:41;;;;;;;2.80;1.10;;;;;;;;;;5069419;28;20068;-68
2022/08/23 15:11:07;;;;;;;4.43;2.13;;;;;;;;;;5060496;28;20037;-69
2022/08/23 15:13:34;;;;;;;2.35;1.17;;;;;;;;;;5062047;28;20052;-69
2022/08/23 15:16:02;;;;;;;2.85;1.42;;;;;;;;;;5061832;28;20118;-68
2022/08/23 15:18:27;;;;;;;2.03;1.20;;;;;;;;;;5049432;28;20049;-68
2022/08/23 15:20:52;;;;;;;2.67;1.30;;;;;;;;;;5049394;28;20082;-68
2022/08/23 15:23:19;;;;;;;1.80;1.10;;;;;;;;;;5050156;28;20719;-69